sensor_id;sensor_type;location;lat;lon;timestamp;pressure;altitude;pressure_sealevel;temperature;humidity
71976;BME280;68326;52.124;5.424;2023-03-14T00:01:08;98863.53;;;10.31;90.21
71976;BME280;68326;52.124;5.424;2023-03-14T00:03:34;98872.03;;;10.33;89.99
71976;BME280;68326;52.124;5.424;2023-03-14T00:06:02;98871.06;;;10.34;89.34
71976;BME280;68326;52.124;5.424;2023-03-14T00:08:29;98876.03;;;10.37;90.06
71976;BME280;68326;52.124;5.424;2023-03-14T00:10:55;98878.47;;;10.39;89.24
71976;BME280;68326;52.124;5.424;2023-03-14T00:13:24;98875.06;;;10.38;88.33
71976;BME280;68326;52.124;5.424;2023-03-14T00:15:50;98866.19;;;10.41;89.13
71976;BME280;68326;52.124;5.424;2023-03-14T00:18:17;98865.34;;;10.40;88.05
71976;BME280;68326;52.124;5.424;2023-03-14T00:20:46;98858.13;;;10.44;86.51
71976;BME280;68326;52.124;5.424;2023-03-14T00:23:12;98857.38;;;10.53;85.96
71976;BME280;68326;52.124;5.424;2023-03-14T00:25:38;98865.75;;;10.57;84.53
71976;BME280;68326;52.124;5.424;2023-03-14T00:28:05;98854.97;;;10.61;84.10
71976;BME280;68326;52.124;5.424;2023-03-14T00:30:31;98858.38;;;10.62;83.63
71976;BME280;68326;52.124;5.424;2023-03-14T00:32:58;98858.38;;;10.62;83.46
71976;BME280;68326;52.124;5.424;2023-03-14T00:35:24;98864.28;;;10.64;82.23
71976;BME280;68326;52.124;5.424;2023-03-14T00:37:51;98872.69;;;10.68;81.85
71976;BME280;68326;52.124;5.424;2023-03-14T00:40:17;98861.19;;;10.70;81.60
71976;BME280;68326;52.124;5.424;2023-03-14T00:42:44;98879.78;;;10.66;80.86
71976;BME280;68326;52.124;5.424;2023-03-14T00:45:10;98878.13;;;10.65;81.15
71976;BME280;68326;52.124;5.424;2023-03-14T00:47:37;98870.47;;;10.63;82.23
71976;BME280;68326;52.124;5.424;2023-03-14T00:50:04;98865.66;;;10.58;82.14
71976;BME280;68326;52.124;5.424;2023-03-14T00:52:30;98871.06;;;10.55;81.68
71976;BME280;68326;52.124;5.424;2023-03-14T00:54:57;98874.75;;;10.53;81.92
71976;BME280;68326;52.124;5.424;2023-03-14T00:57:23;98865.19;;;10.53;81.85
71976;BME280;68326;52.124;5.424;2023-03-14T00:59:50;98877.38;;;10.53;81.55
71976;BME280;68326;52.124;5.424;2023-03-14T01:02:17;98882.44;;;10.54;80.92
71976;BME280;68326;52.124;5.424;2023-03-14T01:04:44;98873.09;;;10.52;81.00
71976;BME280;68326;52.124;5.424;2023-03-14T01:07:10;98894.16;;;10.49;82.06
71976;BME280;68326;52.124;5.424;2023-03-14T01:09:37;98897.84;;;10.46;81.99
71976;BME280;68326;52.124;5.424;2023-03-14T01:12:03;98889.72;;;10.39;82.76
71976;BME280;68326;52.124;5.424;2023-03-14T01:14:30;98896.00;;;10.26;83.47
71976;BME280;68326;52.124;5.424;2023-03-14T01:16:57;98898.38;;;10.17;84.86
71976;BME280;68326;52.124;5.424;2023-03-14T01:19:27;98907.03;;;10.07;86.13
71976;BME280;68326;52.124;5.424;2023-03-14T01:21:54;98902.69;;;9.96;85.41
71976;BME280;68326;52.124;5.424;2023-03-14T01:24:21;98906.13;;;9.85;87.86
71976;BME280;68326;52.124;5.424;2023-03-14T01:26:47;98919.25;;;9.72;89.37
71976;BME280;68326;52.124;5.424;2023-03-14T01:29:13;98915.00;;;9.60;90.29
71976;BME280;68326;52.124;5.424;2023-03-14T01:31:40;98910.53;;;9.51;91.96
71976;BME280;68326;52.124;5.424;2023-03-14T01:34:06;98905.09;;;9.43;92.36
71976;BME280;68326;52.124;5.424;2023-03-14T01:36:33;98903.09;;;9.35;92.54
71976;BME280;68326;52.124;5.424;2023-03-14T01:38:59;98903.44;;;9.30;93.72
71976;BME280;68326;52.124;5.424;2023-03-14T01:41:26;98912.75;;;9.22;94.61
71976;BME280;68326;52.124;5.424;2023-03-14T01:43:53;98912.03;;;9.19;93.75
71976;BME280;68326;52.124;5.424;2023-03-14T01:48:57;98894.25;;;9.15;95.25
71976;BME280;68326;52.124;5.424;2023-03-14T01:51:38;98889.16;;;9.13;95.84
71976;BME280;68326;52.124;5.424;2023-03-14T01:54:25;98884.81;;;9.14;95.34
71976;BME280;68326;52.124;5.424;2023-03-14T01:57:03;98871.84;;;9.14;95.45
71976;BME280;68326;52.124;5.424;2023-03-14T01:59:32;98873.59;;;9.13;95.47
71976;BME280;68326;52.124;5.424;2023-03-14T02:01:59;98868.41;;;9.13;96.03
71976;BME280;68326;52.124;5.424;2023-03-14T02:04:28;98868.88;;;9.18;95.64
71976;BME280;68326;52.124;5.424;2023-03-14T02:07:03;98869.81;;;9.17;95.53
71976;BME280;68326;52.124;5.424;2023-03-14T02:09:30;98872.31;;;9.19;94.51
71976;BME280;68326;52.124;5.424;2023-03-14T02:11:57;98867.94;;;9.19;94.54
71976;BME280;68326;52.124;5.424;2023-03-14T02:14:30;98874.66;;;9.22;94.68
71976;BME280;68326;52.124;5.424;2023-03-14T02:16:57;98867.72;;;9.23;94.78
71976;BME280;68326;52.124;5.424;2023-03-14T02:19:33;98869.13;;;9.27;93.94
71976;BME280;68326;52.124;5.424;2023-03-14T02:22:13;98873.38;;;9.28;94.30
71976;BME280;68326;52.124;5.424;2023-03-14T02:27:34;98849.31;;;9.26;94.28
71976;BME280;68326;52.124;5.424;2023-03-14T02:30:07;98850.97;;;9.27;93.93
71976;BME280;68326;52.124;5.424;2023-03-14T02:32:37;98857.91;;;9.26;93.99
71976;BME280;68326;52.124;5.424;2023-03-14T02:35:09;98857.91;;;9.26;93.88
71976;BME280;68326;52.124;5.424;2023-03-14T02:37:48;98863.09;;;9.26;93.01
71976;BME280;68326;52.124;5.424;2023-03-14T02:40:17;98861.47;;;9.25;93.24
71976;BME280;68326;52.124;5.424;2023-03-14T02:42:43;98857.09;;;9.26;93.75
71976;BME280;68326;52.124;5.424;2023-03-14T02:47:39;98852.72;;;9.26;94.17
71976;BME280;68326;52.124;5.424;2023-03-14T02:50:11;98847.66;;;9.25;93.52
71976;BME280;68326;52.124;5.424;2023-03-14T02:52:39;98841.06;;;9.21;94.35
71976;BME280;68326;52.124;5.424;2023-03-14T02:55:06;98841.28;;;9.17;94.03
71976;BME280;68326;52.124;5.424;2023-03-14T02:57:32;98841.28;;;9.17;93.96
71976;BME280;68326;52.124;5.424;2023-03-14T02:59:59;98835.25;;;9.17;95.06
71976;BME280;68326;52.124;5.424;2023-03-14T03:02:29;98833.50;;;9.17;94.54
71976;BME280;68326;52.124;5.424;2023-03-14T03:04:55;98836.09;;;9.17;95.13
71976;BME280;68326;52.124;5.424;2023-03-14T03:07:22;98837.03;;;9.16;95.16
71976;BME280;68326;52.124;5.424;2023-03-14T03:09:48;98834.56;;;9.15;94.96
71976;BME280;68326;52.124;5.424;2023-03-14T03:12:15;98818.88;;;9.16;95.41
71976;BME280;68326;52.124;5.424;2023-03-14T03:14:41;98822.19;;;9.18;95.03
71976;BME280;68326;52.124;5.424;2023-03-14T03:17:07;98827.47;;;9.17;95.05
71976;BME280;68326;52.124;5.424;2023-03-14T03:19:34;98827.59;;;9.15;95.08
71976;BME280;68326;52.124;5.424;2023-03-14T03:22:01;98825.00;;;9.15;94.69
71976;BME280;68326;52.124;5.424;2023-03-14T03:24:27;98829.97;;;9.18;94.98
71976;BME280;68326;52.124;5.424;2023-03-14T03:26:54;98818.63;;;9.19;94.79
71976;BME280;68326;52.124;5.424;2023-03-14T03:29:21;98815.22;;;9.19;94.22
71976;BME280;68326;52.124;5.424;2023-03-14T03:31:47;98813.31;;;9.21;94.25
71976;BME280;68326;52.124;5.424;2023-03-14T03:34:14;98809.78;;;9.22;94.67
71976;BME280;68326;52.124;5.424;2023-03-14T03:36:42;98817.44;;;9.24;94.20
71976;BME280;68326;52.124;5.424;2023-03-14T03:39:08;98825.72;;;9.29;93.94
71976;BME280;68326;52.124;5.424;2023-03-14T03:41:34;98811.66;;;9.31;93.07
71976;BME280;68326;52.124;5.424;2023-03-14T03:44:01;98802.94;;;9.32;93.18
71976;BME280;68326;52.124;5.424;2023-03-14T03:46:27;98796.91;;;9.32;93.88
71976;BME280;68326;52.124;5.424;2023-03-14T03:48:58;98794.44;;;9.30;92.97
71976;BME280;68326;52.124;5.424;2023-03-14T03:51:25;98796.91;;;9.32;93.25
71976;BME280;68326;52.124;5.424;2023-03-14T03:53:52;98799.63;;;9.30;92.95
71976;BME280;68326;52.124;5.424;2023-03-14T03:56:18;98802.94;;;9.32;92.24
71976;BME280;68326;52.124;5.424;2023-03-14T03:58:45;98794.22;;;9.33;93.05
71976;BME280;68326;52.124;5.424;2023-03-14T04:01:11;98799.41;;;9.33;92.68
71976;BME280;68326;52.124;5.424;2023-03-14T04:03:38;98811.31;;;9.36;92.57
71976;BME280;68326;52.124;5.424;2023-03-14T04:06:11;98804.94;;;9.40;91.97
71976;BME280;68326;52.124;5.424;2023-03-14T04:08:38;98803.88;;;9.43;92.10
71976;BME280;68326;52.124;5.424;2023-03-14T04:11:06;98794.19;;;9.45;91.46
71976;BME280;68326;52.124;5.424;2023-03-14T04:13:33;98804.56;;;9.45;91.12
71976;BME280;68326;52.124;5.424;2023-03-14T04:15:59;98793.13;;;9.47;90.89
71976;BME280;68326;52.124;5.424;2023-03-14T04:18:27;98798.63;;;9.54;90.74
71976;BME280;68326;52.124;5.424;2023-03-14T04:20:55;98805.38;;;9.56;90.43
71976;BME280;68326;52.124;5.424;2023-03-14T04:23:23;98808.81;;;9.57;91.13
71976;BME280;68326;52.124;5.424;2023-03-14T04:25:51;98804.31;;;9.59;90.06
71976;BME280;68326;52.124;5.424;2023-03-14T04:28:18;98805.13;;;9.59;90.66
71976;BME280;68326;52.124;5.424;2023-03-14T04:30:44;98808.44;;;9.62;90.15
71976;BME280;68326;52.124;5.424;2023-03-14T04:33:11;98804.06;;;9.62;89.69
71976;BME280;68326;52.124;5.424;2023-03-14T04:35:38;98799.69;;;9.63;90.24
71976;BME280;68326;52.124;5.424;2023-03-14T04:38:05;98802.41;;;9.61;89.49
71976;BME280;68326;52.124;5.424;2023-03-14T04:40:32;98792.84;;;9.62;90.21
71976;BME280;68326;52.124;5.424;2023-03-14T04:42:58;98788.47;;;9.62;89.94
71976;BME280;68326;52.124;5.424;2023-03-14T04:45:24;98789.06;;;9.66;89.86
71976;BME280;68326;52.124;5.424;2023-03-14T04:47:51;98795.06;;;9.66;89.89
71976;BME280;68326;52.124;5.424;2023-03-14T04:50:17;98789.78;;;9.68;89.52
71976;BME280;68326;52.124;5.424;2023-03-14T04:52:44;98783.63;;;9.69;90.25
71976;BME280;68326;52.124;5.424;2023-03-14T04:55:10;98781.97;;;9.68;89.77
71976;BME280;68326;52.124;5.424;2023-03-14T04:57:37;98788.09;;;9.67;90.31
71976;BME280;68326;52.124;5.424;2023-03-14T05:00:04;98774.31;;;9.66;90.30
71976;BME280;68326;52.124;5.424;2023-03-14T05:02:34;98780.31;;;9.67;89.80
71976;BME280;68326;52.124;5.424;2023-03-14T05:05:01;98778.56;;;9.67;89.62
71976;BME280;68326;52.124;5.424;2023-03-14T05:07:28;98779.50;;;9.66;89.81
71976;BME280;68326;52.124;5.424;2023-03-14T05:09:54;98783.97;;;9.64;90.78
71976;BME280;68326;52.124;5.424;2023-03-14T05:12:20;98783.66;;;9.57;91.65
71976;BME280;68326;52.124;5.424;2023-03-14T05:14:47;98774.81;;;9.49;92.72
71976;BME280;68326;52.124;5.424;2023-03-14T05:17:13;98784.75;;;9.44;92.98
71976;BME280;68326;52.124;5.424;2023-03-14T05:19:41;98781.09;;;9.35;93.81
71976;BME280;68326;52.124;5.424;2023-03-14T05:22:07;98779.72;;;9.31;94.89
71976;BME280;68326;52.124;5.424;2023-03-14T05:24:34;98780.03;;;9.26;95.44
71976;BME280;68326;52.124;5.424;2023-03-14T05:27:00;98768.41;;;9.21;95.34
71976;BME280;68326;52.124;5.424;2023-03-14T05:29:27;98761.91;;;9.15;96.13
71976;BME280;68326;52.124;5.424;2023-03-14T05:31:53;98771.81;;;9.10;96.73
71976;BME280;68326;52.124;5.424;2023-03-14T05:34:20;98769.44;;;9.07;97.21
71976;BME280;68326;52.124;5.424;2023-03-14T05:36:47;98773.00;;;9.06;97.88
71976;BME280;68326;52.124;5.424;2023-03-14T05:39:13;98768.88;;;9.03;97.78
71976;BME280;68326;52.124;5.424;2023-03-14T05:41:40;98765.59;;;9.01;97.65
71976;BME280;68326;52.124;5.424;2023-03-14T05:44:06;98763.00;;;9.01;97.94
71976;BME280;68326;52.124;5.424;2023-03-14T05:46:32;98764.16;;;8.97;98.94
71976;BME280;68326;52.124;5.424;2023-03-14T05:48:59;98766.88;;;8.95;98.59
71976;BME280;68326;52.124;5.424;2023-03-14T05:51:26;98768.88;;;8.92;98.60
71976;BME280;68326;52.124;5.424;2023-03-14T05:53:53;98766.38;;;8.90;98.81
71976;BME280;68326;52.124;5.424;2023-03-14T05:56:19;98760.38;;;8.90;99.63
71976;BME280;68326;52.124;5.424;2023-03-14T05:58:45;98772.53;;;8.89;99.78
71976;BME280;68326;52.124;5.424;2023-03-14T06:01:12;98763.22;;;8.87;100.00
71976;BME280;68326;52.124;5.424;2023-03-14T06:03:38;98771.00;;;8.87;100.00
71976;BME280;68326;52.124;5.424;2023-03-14T06:06:05;98758.97;;;8.86;100.00
71976;BME280;68326;52.124;5.424;2023-03-14T06:08:32;98760.75;;;8.85;100.00
71976;BME280;68326;52.124;5.424;2023-03-14T06:10:58;98760.75;;;8.85;100.00
71976;BME280;68326;52.124;5.424;2023-03-14T06:13:25;98759.81;;;8.86;100.00
71976;BME280;68326;52.124;5.424;2023-03-14T06:15:51;98760.63;;;8.87;100.00
71976;BME280;68326;52.124;5.424;2023-03-14T06:18:18;98765.00;;;8.86;100.00
71976;BME280;68326;52.124;5.424;2023-03-14T06:20:44;98763.78;;;8.90;100.00
71976;BME280;68326;52.124;5.424;2023-03-14T06:23:11;98771.56;;;8.90;100.00
71976;BME280;68326;52.124;5.424;2023-03-14T06:25:37;98766.97;;;8.94;100.00
71976;BME280;68326;52.124;5.424;2023-03-14T06:28:04;98771.25;;;8.95;100.00
71976;BME280;68326;52.124;5.424;2023-03-14T06:30:30;98762.63;;;8.94;100.00
71976;BME280;68326;52.124;5.424;2023-03-14T06:32:57;98779.25;;;8.92;100.00
71976;BME280;68326;52.124;5.424;2023-03-14T06:35:24;98778.31;;;8.93;100.00
71976;BME280;68326;52.124;5.424;2023-03-14T06:37:51;98798.00;;;8.95;100.00
71976;BME280;68326;52.124;5.424;2023-03-14T06:40:17;98818.03;;;8.93;100.00
71976;BME280;68326;52.124;5.424;2023-03-14T06:42:44;98836.09;;;8.95;100.00
71976;BME280;68326;52.124;5.424;2023-03-14T06:45:11;98838.91;;;8.92;100.00
71976;BME280;68326;52.124;5.424;2023-03-14T06:47:38;98851.31;;;8.88;100.00
71976;BME280;68326;52.124;5.424;2023-03-14T06:50:09;98868.84;;;8.85;100.00
71976;BME280;68326;52.124;5.424;2023-03-14T06:52:36;98880.25;;;8.71;100.00
71976;BME280;68326;52.124;5.424;2023-03-14T06:55:03;98884.94;;;8.54;98.11
71976;BME280;68326;52.124;5.424;2023-03-14T06:57:30;98889.22;;;8.43;98.45
71976;BME280;68326;52.124;5.424;2023-03-14T06:59:56;98901.06;;;8.34;97.52
71976;BME280;68326;52.124;5.424;2023-03-14T07:02:23;98912.91;;;8.25;98.27
71976;BME280;68326;52.124;5.424;2023-03-14T07:05:05;98921.38;;;8.16;97.78
71976;BME280;68326;52.124;5.424;2023-03-14T07:07:32;98918.06;;;8.14;99.15
71976;BME280;68326;52.124;5.424;2023-03-14T07:09:58;98924.06;;;8.14;98.37
71976;BME280;68326;52.124;5.424;2023-03-14T07:12:25;98934.75;;;8.10;99.36
71976;BME280;68326;52.124;5.424;2023-03-14T07:14:51;98948.22;;;8.02;99.54
71976;BME280;68326;52.124;5.424;2023-03-14T07:17:18;98947.03;;;7.95;99.56
71976;BME280;68326;52.124;5.424;2023-03-14T07:19:44;98965.25;;;7.93;99.36
71976;BME280;68326;52.124;5.424;2023-03-14T07:22:11;98967.13;;;7.91;99.68
71976;BME280;68326;52.124;5.424;2023-03-14T07:24:37;98968.03;;;7.90;99.79
71976;BME280;68326;52.124;5.424;2023-03-14T07:27:04;98992.91;;;7.93;99.45
71976;BME280;68326;52.124;5.424;2023-03-14T07:29:30;98997.47;;;7.89;99.75
71976;BME280;68326;52.124;5.424;2023-03-14T07:31:57;99008.66;;;7.90;99.50
71976;BME280;68326;52.124;5.424;2023-03-14T07:34:23;99024.19;;;7.90;99.62
71976;BME280;68326;52.124;5.424;2023-03-14T07:36:50;99033.22;;;7.84;98.57
71976;BME280;68326;52.124;5.424;2023-03-14T07:39:16;99034.97;;;7.84;99.58
71976;BME280;68326;52.124;5.424;2023-03-14T07:41:43;99054.34;;;7.78;99.18
71976;BME280;68326;52.124;5.424;2023-03-14T07:44:09;99058.91;;;7.74;98.93
71976;BME280;68326;52.124;5.424;2023-03-14T07:46:35;99071.34;;;7.69;99.13
71976;BME280;68326;52.124;5.424;2023-03-14T07:49:02;99079.50;;;7.63;99.67
71976;BME280;68326;52.124;5.424;2023-03-14T07:51:28;99089.13;;;7.61;98.45
71976;BME280;68326;52.124;5.424;2023-03-14T07:53:55;99100.22;;;7.63;99.12
71976;BME280;68326;52.124;5.424;2023-03-14T07:56:21;99102.19;;;7.60;98.63
71976;BME280;68326;52.124;5.424;2023-03-14T07:58:48;99117.38;;;7.51;98.43
71976;BME280;68326;52.124;5.424;2023-03-14T08:01:14;99120.78;;;7.52;98.86
71976;BME280;68326;52.124;5.424;2023-03-14T08:03:41;99139.44;;;7.57;99.31
71976;BME280;68326;52.124;5.424;2023-03-14T08:06:07;99172.41;;;7.41;95.44
71976;BME280;68326;52.124;5.424;2023-03-14T08:08:34;99194.97;;;7.11;95.68
71976;BME280;68326;52.124;5.424;2023-03-14T08:11:05;99206.47;;;6.93;96.45
71976;BME280;68326;52.124;5.424;2023-03-14T08:13:32;99217.19;;;6.72;96.37
71976;BME280;68326;52.124;5.424;2023-03-14T08:15:58;99231.22;;;6.68;97.16
71976;BME280;68326;52.124;5.424;2023-03-14T08:18:25;99231.03;;;6.57;96.15
71976;BME280;68326;52.124;5.424;2023-03-14T08:20:51;99249.66;;;6.48;96.15
71976;BME280;68326;52.124;5.424;2023-03-14T08:23:18;99262.31;;;6.38;96.24
71976;BME280;68326;52.124;5.424;2023-03-14T08:25:44;99269.47;;;6.33;95.58
71976;BME280;68326;52.124;5.424;2023-03-14T08:28:12;99277.84;;;6.22;95.13
71976;BME280;68326;52.124;5.424;2023-03-14T08:30:39;99291.63;;;6.23;94.94
71976;BME280;68326;52.124;5.424;2023-03-14T08:33:05;99295.47;;;6.16;94.89
71976;BME280;68326;52.124;5.424;2023-03-14T08:35:32;99307.72;;;6.12;95.13
71976;BME280;68326;52.124;5.424;2023-03-14T08:37:58;99317.41;;;6.08;95.54
71976;BME280;68326;52.124;5.424;2023-03-14T08:40:25;99329.97;;;6.15;96.59
71976;BME280;68326;52.124;5.424;2023-03-14T08:42:51;99336.44;;;6.22;96.08
71976;BME280;68326;52.124;5.424;2023-03-14T08:45:17;99352.34;;;6.30;96.21
71976;BME280;68326;52.124;5.424;2023-03-14T08:47:45;99359.06;;;6.32;95.54
71976;BME280;68326;52.124;5.424;2023-03-14T08:50:12;99372.06;;;6.31;94.54
71976;BME280;68326;52.124;5.424;2023-03-14T08:52:41;99383.69;;;6.24;94.41
71976;BME280;68326;52.124;5.424;2023-03-14T08:55:08;99395.25;;;6.32;94.28
71976;BME280;68326;52.124;5.424;2023-03-14T08:57:35;99405.72;;;6.45;94.30
71976;BME280;68326;52.124;5.424;2023-03-14T09:00:04;99421.63;;;6.53;92.93
71976;BME280;68326;52.124;5.424;2023-03-14T09:02:39;99443.72;;;6.43;91.00
71976;BME280;68326;52.124;5.424;2023-03-14T09:05:07;99438.47;;;6.45;91.69
71976;BME280;68326;52.124;5.424;2023-03-14T09:07:33;99442.78;;;6.60;92.17
71976;BME280;68326;52.124;5.424;2023-03-14T09:10:00;99455.28;;;6.68;91.46
71976;BME280;68326;52.124;5.424;2023-03-14T09:12:26;99467.72;;;6.61;91.35
71976;BME280;68326;52.124;5.424;2023-03-14T09:14:53;99476.38;;;6.60;91.52
71976;BME280;68326;52.124;5.424;2023-03-14T09:17:19;99488.22;;;6.64;90.37
71976;BME280;68326;52.124;5.424;2023-03-14T09:19:46;99497.72;;;6.64;89.89
71976;BME280;68326;52.124;5.424;2023-03-14T09:22:12;99497.38;;;6.54;88.60
71976;BME280;68326;52.124;5.424;2023-03-14T09:24:40;99518.06;;;6.54;88.08
71976;BME280;68326;52.124;5.424;2023-03-14T09:27:07;99528.59;;;6.51;87.31
71976;BME280;68326;52.124;5.424;2023-03-14T09:29:34;99528.91;;;6.45;88.41
71976;BME280;68326;52.124;5.424;2023-03-14T09:32:00;99544.34;;;6.46;88.67
71976;BME280;68326;52.124;5.424;2023-03-14T09:34:27;99549.25;;;6.51;87.37
71976;BME280;68326;52.124;5.424;2023-03-14T09:36:53;99549.94;;;6.55;87.64
71976;BME280;68326;52.124;5.424;2023-03-14T09:39:20;99562.41;;;6.62;86.92
71976;BME280;68326;52.124;5.424;2023-03-14T09:41:49;99571.84;;;6.63;86.07
71976;BME280;68326;52.124;5.424;2023-03-14T09:44:23;99583.78;;;6.66;85.85
71976;BME280;68326;52.124;5.424;2023-03-14T09:46:53;99596.44;;;6.70;85.34
71976;BME280;68326;52.124;5.424;2023-03-14T09:49:28;99599.59;;;6.76;85.33
71976;BME280;68326;52.124;5.424;2023-03-14T09:51:57;99606.53;;;6.75;83.51
71976;BME280;68326;52.124;5.424;2023-03-14T09:54:50;99615.44;;;6.85;84.53
71976;BME280;68326;52.124;5.424;2023-03-14T09:57:20;99632.47;;;6.89;84.19
71976;BME280;68326;52.124;5.424;2023-03-14T09:59:49;99642.31;;;6.99;84.57
71976;BME280;68326;52.124;5.424;2023-03-14T10:02:21;99645.16;;;7.10;84.16
71976;BME280;68326;52.124;5.424;2023-03-14T10:04:50;99656.91;;;7.00;83.49
71976;BME280;68326;52.124;5.424;2023-03-14T10:07:23;99659.75;;;6.95;82.74
71976;BME280;68326;52.124;5.424;2023-03-14T10:09:51;99665.44;;;7.02;83.15
71976;BME280;68326;52.124;5.424;2023-03-14T10:12:18;99686.28;;;7.14;82.46
71976;BME280;68326;52.124;5.424;2023-03-14T10:14:52;99692.97;;;7.19;81.74
71976;BME280;68326;52.124;5.424;2023-03-14T10:17:20;99701.97;;;6.96;82.77
71976;BME280;68326;52.124;5.424;2023-03-14T10:19:56;99718.50;;;6.93;84.41
71976;BME280;68326;52.124;5.424;2023-03-14T10:22:26;99735.72;;;6.92;85.00
71976;BME280;68326;52.124;5.424;2023-03-14T10:24:57;99741.72;;;6.77;85.83
71976;BME280;68326;52.124;5.424;2023-03-14T10:27:33;99752.63;;;6.66;nan
71976;BME280;68326;52.124;5.424;2023-03-14T10:30:04;99760.88;;;6.73;87.17
71976;BME280;68326;52.124;5.424;2023-03-14T10:32:36;99762.78;;;6.87;87.38
71976;BME280;68326;52.124;5.424;2023-03-14T10:35:08;99770.03;;;6.96;86.03
71976;BME280;68326;52.124;5.424;2023-03-14T10:37:35;99787.31;;;7.11;86.08
71976;BME280;68326;52.124;5.424;2023-03-14T10:40:03;99804.59;;;7.11;85.48
71976;BME280;68326;52.124;5.424;2023-03-14T10:42:34;99809.03;;;7.09;83.96
71976;BME280;68326;52.124;5.424;2023-03-14T10:45:20;99823.44;;;6.97;83.15
71976;BME280;68326;52.124;5.424;2023-03-14T10:47:49;99833.03;;;6.95;83.58
71976;BME280;68326;52.124;5.424;2023-03-14T10:50:30;99846.09;;;6.92;81.71
71976;BME280;68326;52.124;5.424;2023-03-14T10:53:01;99863.75;;;6.84;82.64
71976;BME280;68326;52.124;5.424;2023-03-14T10:55:42;99874.97;;;6.84;82.27
71976;BME280;68326;52.124;5.424;2023-03-14T10:58:28;99891.84;;;6.74;81.09
71976;BME280;68326;52.124;5.424;2023-03-14T11:01:14;99902.56;;;6.66;81.82
71976;BME280;68326;52.124;5.424;2023-03-14T11:03:49;99910.78;;;6.57;82.16
71976;BME280;68326;52.124;5.424;2023-03-14T11:06:28;99917.06;;;6.51;82.21
71976;BME280;68326;52.124;5.424;2023-03-14T11:09:17;99922.84;;;6.57;81.04
71976;BME280;68326;52.124;5.424;2023-03-14T11:11:47;99938.34;;;6.57;80.00
71976;BME280;68326;52.124;5.424;2023-03-14T11:14:38;99940.03;;;6.75;80.60
71976;BME280;68326;52.124;5.424;2023-03-14T11:17:14;99945.59;;;7.02;78.30
71976;BME280;68326;52.124;5.424;2023-03-14T11:22:38;99968.06;;;8.02;76.24
71976;BME280;68326;52.124;5.424;2023-03-14T11:25:18;99976.84;;;8.47;72.13
71976;BME280;68326;52.124;5.424;2023-03-14T11:28:23;99987.84;;;8.82;71.60
71976;BME280;68326;52.124;5.424;2023-03-14T11:30:54;99981.16;;;8.62;67.16
71976;BME280;68326;52.124;5.424;2023-03-14T11:33:25;99999.44;;;8.45;67.63
71976;BME280;68326;52.124;5.424;2023-03-14T11:36:07;100006.00;;;8.82;68.17
71976;BME280;68326;52.124;5.424;2023-03-14T11:38:49;100011.25;;;9.55;66.77
71976;BME280;68326;52.124;5.424;2023-03-14T11:41:23;100015.53;;;9.56;65.29
71976;BME280;68326;52.124;5.424;2023-03-14T11:43:56;100027.91;;;9.67;64.26
71976;BME280;68326;52.124;5.424;2023-03-14T11:46:25;100037.38;;;9.97;62.33
71976;BME280;68326;52.124;5.424;2023-03-14T11:49:05;100037.22;;;9.55;62.74
71976;BME280;68326;52.124;5.424;2023-03-14T11:51:44;100049.53;;;9.82;64.77
71976;BME280;68326;52.124;5.424;2023-03-14T11:54:42;100055.34;;;10.00;61.47
71976;BME280;68326;52.124;5.424;2023-03-14T11:57:16;100056.00;;;9.89;58.73
71976;BME280;68326;52.124;5.424;2023-03-14T11:59:55;100062.88;;;10.05;60.61
71976;BME280;68326;52.124;5.424;2023-03-14T12:10:48;100087.97;;;10.34;56.96
71976;BME280;68326;52.124;5.424;2023-03-14T12:13:17;100095.63;;;10.21;56.71
71976;BME280;68326;52.124;5.424;2023-03-14T12:15:57;100105.75;;;10.26;56.16
71976;BME280;68326;52.124;5.424;2023-03-14T12:18:33;100120.72;;;10.08;57.37
71976;BME280;68326;52.124;5.424;2023-03-14T12:21:03;100117.59;;;9.58;56.85
71976;BME280;68326;52.124;5.424;2023-03-14T12:23:42;100113.75;;;9.50;58.92
71976;BME280;68326;52.124;5.424;2023-03-14T12:28:42;100132.44;;;9.71;54.35
71976;BME280;68326;52.124;5.424;2023-03-14T12:34:03;100141.78;;;9.59;54.02
71976;BME280;68326;52.124;5.424;2023-03-14T12:48:09;100161.91;;;10.00;54.89
71976;BME280;68326;52.124;5.424;2023-03-14T12:50:43;100161.75;;;10.03;53.18
71976;BME280;68326;52.124;5.424;2023-03-14T12:53:25;100162.94;;;9.97;53.74
71976;BME280;68326;52.124;5.424;2023-03-14T12:56:20;100173.81;;;10.04;54.68
71976;BME280;68326;52.124;5.424;2023-03-14T13:01:33;100192.88;;;9.74;51.14
71976;BME280;68326;52.124;5.424;2023-03-14T13:04:08;100203.34;;;9.27;52.11
71976;BME280;68326;52.124;5.424;2023-03-14T13:06:56;100217.00;;;9.14;54.53
71976;BME280;68326;52.124;5.424;2023-03-14T13:11:58;100224.59;;;9.17;49.43
71976;BME280;68326;52.124;5.424;2023-03-14T13:14:28;100224.34;;;9.22;52.06
71976;BME280;68326;52.124;5.424;2023-03-14T13:16:55;100225.41;;;9.50;50.80
71976;BME280;68326;52.124;5.424;2023-03-14T13:19:50;100237.97;;;9.73;50.63
71976;BME280;68326;52.124;5.424;2023-03-14T13:22:30;100245.00;;;9.71;52.31
71976;BME280;68326;52.124;5.424;2023-03-14T13:25:06;100252.16;;;9.98;51.77
71976;BME280;68326;52.124;5.424;2023-03-14T13:27:34;100244.13;;;9.87;48.77
71976;BME280;68326;52.124;5.424;2023-03-14T13:30:12;100264.75;;;9.90;49.45
71976;BME280;68326;52.124;5.424;2023-03-14T13:32:43;100258.28;;;9.97;48.69
71976;BME280;68326;52.124;5.424;2023-03-14T13:35:27;100273.47;;;10.19;49.20
71976;BME280;68326;52.124;5.424;2023-03-14T13:37:57;100278.75;;;9.87;46.18
71976;BME280;68326;52.124;5.424;2023-03-14T13:40:37;100281.25;;;8.93;49.59
71976;BME280;68326;52.124;5.424;2023-03-14T13:43:11;100289.47;;;8.68;51.60
71976;BME280;68326;52.124;5.424;2023-03-14T13:45:50;100311.84;;;9.04;50.62
71976;BME280;68326;52.124;5.424;2023-03-14T13:48:17;100308.72;;;9.31;47.21
71976;BME280;68326;52.124;5.424;2023-03-14T13:50:53;100309.63;;;9.62;48.68
71976;BME280;68326;52.124;5.424;2023-03-14T13:53:20;100318.84;;;9.67;49.23
71976;BME280;68326;52.124;5.424;2023-03-14T13:55:47;100329.31;;;9.66;49.30
71976;BME280;68326;52.124;5.424;2023-03-14T13:58:35;100336.53;;;9.61;49.40
71976;BME280;68326;52.124;5.424;2023-03-14T14:01:15;100341.59;;;9.14;51.95